Time;durP1;ratioP1;P1;durP2;ratioP2;P2;SDS_P1;SDS_P2;PMS_P1;PMS_P2;Temp;Humidity;BMP_temperature;BMP_pressure;BME280_temperature;BME280_humidity;BME280_pressure;Samples;Min_cycle;Max_cycle;Signal;HPM_P1;HPM_P2
2023/03/28 00:01:29;;;;;;;9.52;6.20;;;;;;;8.53;88.77;99077.28;4929315;28;20063;-92
2023/03/28 00:03:58;;;;;;;10.40;6.78;;;;;;;8.30;87.77;99074.69;4931765;28;20364;-91
2023/03/28 00:06:37;;;;;;;8.80;6.72;;;;;;;8.34;88.05;99084.00;4955992;28;20146;-96
2023/03/28 00:09:46;;;;;;;9.50;6.43;;;;;;;8.36;87.60;99092.69;4957461;28;20027;-94
2023/03/28 00:12:35;;;;;;;10.07;6.38;;;;;;;8.16;88.27;99101.25;4962767;28;20082;-94
2023/03/28 00:15:14;;;;;;;7.78;5.75;;;;;;;8.06;88.10;99081.97;4952828;28;20047;-95
2023/03/28 00:17:57;;;;;;;7.72;5.88;;;;;;;8.11;88.15;99111.69;4961287;28;20062;-93
2023/03/28 00:21:29;;;;;;;8.68;5.95;;;;;;;7.96;88.61;99092.06;4958917;28;20058;-94
2023/03/28 00:24:16;;;;;;;7.75;5.70;;;;;;;8.09;88.38;99126.25;4888375;29;20048;-95
2023/03/28 00:27:08;;;;;;;8.13;5.80;;;;;;;8.20;87.92;99141.88;4904591;29;20502;-96
2023/03/28 00:29:52;;;;;;;8.18;5.90;;;;;;;8.25;87.23;99151.03;4901034;29;20100;-96
2023/03/28 00:33:06;;;;;;;9.15;6.20;;;;;;;8.19;87.02;99177.69;4902261;29;20032;-95
2023/03/28 00:35:41;;;;;;;7.80;5.63;;;;;;;7.99;86.33;99166.66;4901763;29;20060;-93
2023/03/28 00:38:44;;;;;;;7.68;5.38;;;;;;;7.96;85.69;99145.59;4880205;29;20052;-94
2023/03/28 00:41:54;;;;;;;7.30;4.93;;;;;;;7.81;85.35;99130.34;4955045;28;20289;-93
2023/03/28 00:45:15;;;;;;;7.10;4.90;;;;;;;7.86;85.95;99161.09;4940268;28;20051;-95
2023/03/28 00:54:49;;;;;;;7.28;5.15;;;;;;;7.85;85.98;99160.25;5027810;23;20061;-95
2023/03/28 00:58:10;;;;;;;7.95;5.53;;;;;;;7.91;85.95;99174.75;5028340;23;20547;-92
2023/03/28 01:03:46;;;;;;;6.93;4.88;;;;;;;7.66;85.51;99121.47;4971698;23;20052;-95
2023/03/28 01:09:38;;;;;;;7.50;5.10;;;;;;;7.92;84.78;99176.44;5924980;23;20018;31
2023/03/28 01:16:06;;;;;;;7.13;4.90;;;;;;;7.89;84.21;99187.47;4966061;28;20089;-93
2023/03/28 01:18:53;;;;;;;;;;;;;;;7.97;83.49;99180.22;4953492;28;20036;-93
2023/03/28 01:22:07;;;;;;;7.07;4.97;;;;;;;7.89;83.75;99171.41;4968062;28;19918;-93
2023/03/28 01:25:14;;;;;;;7.47;4.93;;;;;;;7.99;82.63;99180.88;4959950;29;20058;-93
2023/03/28 01:28:03;;;;;;;7.40;5.40;;;;;;;7.86;82.44;99187.84;4939513;29;20047;-94
2023/03/28 01:30:55;;;;;;;7.10;5.03;;;;;;;7.99;82.53;99194.25;4959589;28;20066;-94
2023/03/28 01:33:56;;;;;;;7.80;5.80;;;;;;;7.94;81.32;99179.75;4955550;29;20195;-93
2023/03/28 01:37:00;;;;;;;6.90;5.15;;;;;;;7.98;80.66;99197.09;4965604;28;20099;-93
2023/03/28 01:39:55;;;;;;;7.10;5.60;;;;;;;7.68;81.16;99154.22;4968644;28;20103;-93
2023/03/28 01:42:32;;;;;;;7.95;5.80;;;;;;;7.99;80.25;99201.47;4969729;28;20094;-95
2023/03/28 01:45:34;;;;;;;7.40;5.57;;;;;;;7.67;80.02;99147.19;4948317;29;20102;-95
2023/03/28 01:48:27;;;;;;;7.25;5.65;;;;;;;7.84;79.29;99177.31;4936427;29;20063;-93
2023/03/28 01:51:07;;;;;;;6.65;5.00;;;;;;;7.94;77.68;99203.84;4963879;28;20126;-92
2023/03/28 01:53:43;;;;;;;6.68;5.45;;;;;;;7.69;77.04;99152.38;4940069;29;20043;-94
2023/03/28 01:56:43;;;;;;;7.50;5.40;;;;;;;7.60;77.05;99163.09;4938676;29;20039;-94
2023/03/28 02:00:18;;;;;;;8.15;5.55;;;;;;;7.87;77.49;99210.94;4948379;29;20050;-93
2023/03/28 02:03:25;;;;;;;7.68;5.80;;;;;;;7.55;76.73;99153.97;4959085;28;20057;-95
2023/03/28 02:08:43;;;;;;;7.90;6.00;;;;;;;7.62;77.31;99187.00;4944675;28;20056;-96
2023/03/28 02:11:26;;;;;;;9.82;6.07;;;;;;;7.61;77.21;99167.47;4933268;29;20545;-95
2023/03/28 02:14:36;;;;;;;9.95;6.00;;;;;;;7.77;76.93;99211.16;4924976;29;20060;-95
2023/03/28 02:17:38;;;;;;;7.47;5.80;;;;;;;7.55;76.66;99186.88;4950847;29;20048;-95
2023/03/28 02:20:10;;;;;;;8.85;6.55;;;;;;;7.48;76.53;99177.09;4914752;29;20047;-96
2023/03/28 02:22:59;;;;;;;8.38;6.15;;;;;;;7.53;76.04;99177.38;4902276;29;20043;-96
2023/03/28 02:25:36;;;;;;;9.95;6.32;;;;;;;7.65;75.89;99216.06;4892715;29;20043;-95
2023/03/28 02:28:41;;;;;;;8.90;6.38;;;;;;;7.59;76.15;99235.53;4924227;29;20054;-93
2023/03/28 02:31:57;;;;;;;9.13;6.00;;;;;;;7.59;75.44;99222.16;5055747;23;20099;-94
2023/03/28 02:39:14;;;;;;;10.00;6.15;;;;;;;7.45;75.40;99239.78;4948829;28;20046;-95
2023/03/28 02:42:22;;;;;;;7.20;4.95;;;;;;;7.33;74.44;99241.19;4933878;28;20377;-94
2023/03/28 02:53:43;;;;;;;;;;;;;;;7.04;73.69;99260.50;5422611;23;20030;31
2023/03/28 02:56:37;;;;;;;;;;;;;;;6.89;73.67;99277.25;4948738;29;19974;-95
2023/03/28 03:00:11;;;;;;;7.72;5.07;;;;;;;6.47;73.36;99251.63;4944006;29;19923;-95
2023/03/28 03:15:45;;;;;;;9.15;4.00;;;;;;;6.24;71.20;99314.69;4952739;28;20119;-96
2023/03/28 04:04:19;;;;;;;5.10;1.70;;;;;;;4.98;68.54;99290.63;4949776;29;20119;-90
2023/03/28 04:06:50;;;;;;;4.15;1.80;;;;;;;5.02;68.46;99292.81;4927943;29;20068;-94
2023/03/28 04:09:16;;;;;;;5.55;1.90;;;;;;;5.02;68.51;99324.78;4904641;29;20378;-94
2023/03/28 04:11:51;;;;;;;3.90;1.80;;;;;;;5.08;68.45;99308.16;4937553;29;20078;-90
2023/03/28 04:14:49;;;;;;;3.70;1.60;;;;;;;5.14;68.18;99317.34;5012873;23;20066;-92
2023/03/28 04:18:00;;;;;;;3.85;2.20;;;;;;;5.13;68.12;99331.66;4939386;29;20158;-96
2023/03/28 04:21:11;;;;;;;3.55;2.13;;;;;;;5.13;67.94;99321.00;4944486;29;20040;-91
2023/03/28 04:23:47;;;;;;;3.15;1.73;;;;;;;4.85;68.25;99269.75;4939118;29;20047;-92
2023/03/28 04:26:24;;;;;;;3.50;2.03;;;;;;;4.93;67.87;99308.91;4923690;29;20416;-90
2023/03/28 04:29:02;;;;;;;4.15;1.73;;;;;;;4.90;67.53;99342.00;4936403;29;20101;-92
2023/03/28 04:31:34;;;;;;;3.53;1.75;;;;;;;5.07;68.02;99337.63;4919135;29;20047;-96
2023/03/28 04:34:04;;;;;;;4.97;1.92;;;;;;;4.86;67.43;99325.50;4918309;29;20140;-95
2023/03/28 04:36:51;;;;;;;5.60;1.88;;;;;;;4.79;67.36;99318.31;4939141;29;20056;-92
2023/03/28 04:39:20;;;;;;;2.60;1.60;;;;;;;4.79;67.83;99340.44;4937759;29;20119;-93
2023/03/28 04:42:09;;;;;;;5.50;2.30;;;;;;;4.95;67.55;99379.66;4951991;29;20527;-92
2023/03/28 04:44:46;;;;;;;3.00;1.85;;;;;;;4.75;67.58;99360.41;4931494;29;20052;-94
2023/03/28 04:47:38;;;;;;;5.13;2.35;;;;;;;5.01;68.24;99375.53;4902660;29;20036;-91
2023/03/28 04:50:24;;;;;;;6.35;2.58;;;;;;;5.01;68.13;99386.19;4956043;29;20042;-90
2023/03/28 04:53:01;;;;;;;5.68;2.20;;;;;;;4.80;67.82;99333.28;4957639;29;20035;-92
2023/03/28 04:55:28;;;;;;;5.22;2.55;;;;;;;4.95;67.59;99392.16;4950424;29;20086;-92
2023/03/28 04:57:58;;;;;;;5.88;2.10;;;;;;;4.89;67.31;99387.44;4955781;29;20020;-92
2023/03/28 05:00:27;;;;;;;4.32;2.10;;;;;;;5.03;67.22;99422.34;4953512;29;20032;-92
2023/03/28 05:02:58;;;;;;;3.90;2.30;;;;;;;5.10;67.36;99465.16;4933911;29;20155;-93
2023/03/28 05:05:40;;;;;;;4.80;2.33;;;;;;;4.90;66.52;99443.22;4959796;28;20063;-91
2023/03/28 05:08:07;;;;;;;6.05;2.50;;;;;;;5.11;66.70;99458.88;4950200;29;20036;-94
2023/03/28 05:10:34;;;;;;;4.47;2.40;;;;;;;4.89;66.18;99436.22;4917855;29;20059;-92
2023/03/28 05:13:03;;;;;;;5.28;2.90;;;;;;;4.91;66.68;99444.06;4914579;29;20432;-91
2023/03/28 05:15:30;;;;;;;6.72;2.80;;;;;;;5.11;65.92;99488.19;4934807;29;20044;-93
2023/03/28 05:17:58;;;;;;;7.65;3.22;;;;;;;5.36;65.54;99507.88;4905918;29;20501;-91
2023/03/28 05:20:28;;;;;;;6.28;3.10;;;;;;;5.29;65.45;99485.47;4909432;29;20076;-94
2023/03/28 05:22:56;;;;;;;6.30;2.20;;;;;;;5.30;64.28;99481.81;4917855;29;20048;-93
2023/03/28 05:25:30;;;;;;;5.15;2.47;;;;;;;5.41;64.32;99499.41;4925748;29;20048;-91
2023/03/28 05:27:59;;;;;;;5.35;2.50;;;;;;;5.57;64.52;99533.31;4939633;29;20468;-92
2023/03/28 05:30:30;;;;;;;6.60;2.70;;;;;;;5.64;63.77;99521.88;4913327;29;20126;-93
2023/03/28 05:32:59;;;;;;;10.15;2.80;;;;;;;5.67;63.62;99499.41;4934912;29;20154;-95
2023/03/28 05:35:32;;;;;;;4.93;2.63;;;;;;;5.97;62.33;99532.78;4928822;29;20038;-93
2023/03/28 05:37:59;;;;;;;4.70;2.40;;;;;;;6.21;61.51;99507.19;4934046;29;21249;-92
2023/03/28 05:40:25;;;;;;;8.27;2.97;;;;;;;7.57;56.77;99495.13;4925153;29;20149;-90
2023/03/28 05:42:56;;;;;;;;;;;;;;;8.59;54.16;99513.19;4928725;29;20463;-92
2023/03/28 05:45:26;;;;;;;10.90;2.92;;;;;;;8.91;53.62;99482.66;4997809;23;19923;-89
2023/03/28 05:47:56;;;;;;;10.55;3.30;;;;;;;9.22;51.34;99436.16;4926562;29;20047;-93
2023/03/28 05:50:35;;;;;;;7.47;2.80;;;;;;;9.70;50.97;99482.31;4916728;29;20074;-95
2023/03/28 05:53:01;;;;;;;5.72;2.50;;;;;;;9.70;50.10;99474.25;4933806;29;20043;-91
2023/03/28 05:55:56;;;;;;;5.88;2.25;;;;;;;10.39;47.88;99459.69;4933636;29;20103;-91
2023/03/28 05:58:28;;;;;;;7.28;3.08;;;;;;;11.06;46.21;99518.53;4952330;28;20032;-93
2023/03/28 06:01:04;;;;;;;5.18;2.33;;;;;;;10.86;46.01;99499.47;4931737;29;20047;-91
2023/03/28 06:03:32;;;;;;;10.32;2.70;;;;;;;11.13;45.99;99489.00;4932986;29;20047;-93
2023/03/28 06:06:00;;;;;;;5.65;2.70;;;;;;;10.78;46.62;99484.31;4932510;29;20090;-91
2023/03/28 06:08:29;;;;;;;5.45;3.03;;;;;;;10.46;47.06;99493.66;4929820;29;20060;-91
2023/03/28 06:11:10;;;;;;;4.43;2.65;;;;;;;9.30;50.00;99508.53;4930112;29;20055;-89
2023/03/28 06:13:37;;;;;;;7.95;2.80;;;;;;;8.97;51.23;99524.03;4925242;29;20044;-88
2023/03/28 06:16:03;;;;;;;7.75;2.70;;;;;;;8.14;52.93;99528.09;4926680;29;20051;-90
2023/03/28 06:18:29;;;;;;;5.78;2.90;;;;;;;8.09;53.51;99550.03;4922150;29;20157;-89
2023/03/28 06:20:56;;;;;;;4.35;2.97;;;;;;;7.79;54.64;99531.03;4949806;29;20047;-91
2023/03/28 06:23:22;;;;;;;5.85;2.95;;;;;;;8.18;53.49;99543.66;4924176;29;20091;-88
2023/03/28 06:25:50;;;;;;;6.50;3.53;;;;;;;8.47;52.68;99541.38;4950841;28;20044;-94
2023/03/28 06:28:16;;;;;;;8.68;3.70;;;;;;;9.30;50.74;99572.91;4923498;29;20119;-88
2023/03/28 06:30:47;;;;;;;10.88;3.30;;;;;;;9.62;49.41;99523.50;4933156;29;20495;-90
2023/03/28 06:33:15;;;;;;;7.32;3.08;;;;;;;10.07;47.90;99547.69;4919267;29;20098;-89
2023/03/28 06:35:42;;;;;;;4.18;2.80;;;;;;;9.40;49.21;99538.59;4926023;29;20060;-87
2023/03/28 06:38:09;;;;;;;7.55;2.80;;;;;;;9.29;49.21;99549.75;4918296;29;20055;-86
2023/03/28 06:40:38;;;;;;;5.55;3.20;;;;;;;8.98;50.30;99563.22;4930850;29;20043;-92
2023/03/28 06:43:08;;;;;;;3.75;2.60;;;;;;;9.17;49.88;99564.59;4946963;29;20044;-94
2023/03/28 06:45:34;;;;;;;8.07;2.78;;;;;;;9.13;49.83;99536.47;4930562;28;20075;-90
2023/03/28 06:48:01;;;;;;;5.38;2.70;;;;;;;9.83;47.76;99557.69;4922867;29;20039;-93
2023/03/28 06:50:37;;;;;;;2.70;2.13;;;;;;;9.58;47.72;99556.25;4938215;29;20056;-94
2023/03/28 06:53:12;;;;;;;6.03;2.63;;;;;;;9.89;47.36;99578.41;4949267;29;20141;-89
2023/03/28 06:56:07;;;;;;;4.60;2.40;;;;;;;9.97;47.32;99616.94;4962329;28;20038;-92
2023/03/28 06:58:32;;;;;;;9.60;2.80;;;;;;;9.98;47.19;99599.81;4933728;29;20111;-91
2023/03/28 07:01:02;;;;;;;;;;;;;;;9.85;47.47;99622.72;4930395;29;20519;-92
2023/03/28 07:03:31;;;;;;;7.57;2.80;;;;;;;10.02;47.35;99619.91;4936795;29;20009;-94
2023/03/28 07:06:06;;;;;;;10.77;4.40;;;;;;;9.60;48.14;99648.97;4945879;29;20039;-88
2023/03/28 07:08:36;;;;;;;5.32;2.60;;;;;;;8.42;49.88;99600.84;4951471;29;20104;-91
2023/03/28 07:11:06;;;;;;;4.88;2.60;;;;;;;7.97;51.69;99647.78;4933358;29;20517;-85
2023/03/28 07:13:33;;;;;;;4.93;2.40;;;;;;;7.87;52.49;99663.19;4930891;29;20044;-86
2023/03/28 07:16:06;;;;;;;5.18;2.70;;;;;;;7.68;52.48;99667.84;4939441;28;20504;-89
2023/03/28 07:18:33;;;;;;;6.30;2.55;;;;;;;7.33;53.75;99666.31;4898335;29;20048;-88
2023/03/28 07:21:07;;;;;;;4.47;2.60;;;;;;;7.75;53.26;99676.03;4903022;29;20063;-89
2023/03/28 07:23:32;;;;;;;9.15;2.88;;;;;;;7.58;53.32;99624.34;4908145;29;20040;-83
2023/03/28 07:25:58;;;;;;;4.78;2.70;;;;;;;7.96;52.45;99670.16;4918486;29;20055;-84
2023/03/28 07:28:25;;;;;;;7.55;2.83;;;;;;;8.12;52.34;99664.81;4915956;29;20469;-83
2023/03/28 07:30:53;;;;;;;6.72;2.45;;;;;;;8.25;51.64;99686.53;4927912;29;20040;-85
2023/03/28 07:33:19;;;;;;;7.53;2.60;;;;;;;8.18;51.89;99695.44;4913226;29;20032;-81
2023/03/28 07:35:46;;;;;;;7.93;2.88;;;;;;;8.91;50.05;99691.75;4930408;29;20046;-82
2023/03/28 07:38:13;;;;;;;5.78;2.85;;;;;;;8.63;50.76;99710.94;4933209;29;20042;-86
2023/03/28 07:40:39;;;;;;;5.32;2.53;;;;;;;8.45;50.84;99703.13;4935355;29;20524;-81
2023/03/28 07:43:05;;;;;;;5.35;2.78;;;;;;;8.76;50.74;99710.41;4927850;29;20095;-86
2023/03/28 07:45:33;;;;;;;6.72;3.30;;;;;;;8.61;50.74;99680.78;4932392;29;20162;-83
2023/03/28 07:48:00;;;;;;;7.28;3.08;;;;;;;8.60;51.39;99689.84;4924702;29;20036;-89
2023/03/28 07:50:33;;;;;;;5.75;3.38;;;;;;;8.38;52.91;99706.59;4914352;29;20044;-85
2023/03/28 07:52:59;;;;;;;6.70;2.88;;;;;;;8.21;52.08;99690.56;4932493;29;20526;-87
2023/03/28 07:55:28;;;;;;;10.23;3.92;;;;;;;8.25;52.69;99707.97;4921958;29;20036;-87
2023/03/28 07:57:55;;;;;;;5.68;3.28;;;;;;;8.18;52.05;99668.66;4915611;29;20127;-86
2023/03/28 08:00:22;;;;;;;9.35;3.90;;;;;;;8.33;51.78;99674.16;4923196;29;20040;-85
2023/03/28 08:02:50;;;;;;;5.18;3.20;;;;;;;8.52;51.43;99699.75;4916822;29;20457;-86
2023/03/28 08:05:16;;;;;;;4.57;3.00;;;;;;;8.33;51.72;99699.06;4919288;29;20058;-86
2023/03/28 08:07:45;;;;;;;7.90;3.55;;;;;;;8.27;52.01;99731.09;4934224;29;20122;-83
2023/03/28 08:10:13;;;;;;;6.53;3.78;;;;;;;7.98;52.49;99733.25;4930427;29;20047;-85
2023/03/28 08:12:39;;;;;;;10.18;3.55;;;;;;;8.12;52.90;99738.94;4929299;29;20123;-86
2023/03/28 08:15:08;;;;;;;6.00;3.60;;;;;;;8.12;52.88;99741.63;4933262;29;20055;-85
2023/03/28 08:17:33;;;;;;;6.70;3.95;;;;;;;8.05;52.72;99725.38;4925173;29;20090;-86
2023/03/28 08:19:59;;;;;;;5.15;3.40;;;;;;;8.01;52.88;99745.47;4932374;29;20494;-84
2023/03/28 08:22:26;;;;;;;6.55;3.63;;;;;;;7.42;54.53;99732.16;4930802;29;20051;-85
2023/03/28 08:24:53;;;;;;;7.68;3.78;;;;;;;7.42;55.16;99699.22;4924166;29;20433;-85
2023/03/28 08:27:18;;;;;;;6.22;3.92;;;;;;;7.25;54.51;99736.63;4936521;29;20423;-84
2023/03/28 08:29:44;;;;;;;7.55;4.18;;;;;;;7.23;54.87;99743.97;4938686;29;20048;-85
2023/03/28 08:32:12;;;;;;;5.60;3.72;;;;;;;7.31;54.97;99717.25;4936321;29;20047;-86
2023/03/28 08:34:43;;;;;;;6.47;3.72;;;;;;;7.73;54.89;99740.41;4933022;29;20390;-89
2023/03/28 08:37:11;;;;;;;7.70;3.35;;;;;;;8.04;53.74;99727.22;4932183;29;20066;-92
2023/03/28 08:39:41;;;;;;;13.60;3.95;;;;;;;8.53;52.10;99733.59;4941380;29;20456;-92
2023/03/28 08:42:36;;;;;;;14.82;6.68;;;;;;;8.94;51.78;99734.28;4933813;29;20032;-91
2023/03/28 08:48:52;;;;;;;5.72;3.30;;;;;;;8.93;50.51;99729.94;4944343;29;20203;-91
2023/03/28 08:51:35;;;;;;;14.02;7.47;;;;;;;8.53;51.40;99745.13;4943210;29;20097;-92
2023/03/28 08:54:22;;;;;;;7.07;4.70;;;;;;;8.42;51.82;99764.22;4954686;29;20096;-92
2023/03/28 08:56:57;;;;;;;9.13;4.75;;;;;;;7.86;52.77;99733.75;4948928;29;20048;-89
2023/03/28 09:00:09;;;;;;;8.73;4.07;;;;;;;7.80;53.43;99729.91;4919521;29;20054;-91
2023/03/28 09:02:39;;;;;;;12.07;3.67;;;;;;;7.94;53.54;99755.19;4929172;29;20083;-91
2023/03/28 09:05:10;;;;;;;8.32;4.95;;;;;;;8.15;53.64;99728.75;4931431;29;20048;-92
2023/03/28 09:07:46;;;;;;;9.10;4.68;;;;;;;8.25;52.49;99712.50;4910968;29;20516;-92
2023/03/28 09:10:28;;;;;;;8.93;5.43;;;;;;;8.23;52.40;99709.97;4920980;29;20054;-92
2023/03/28 09:12:55;;;;;;;16.50;7.65;;;;;;;8.68;52.13;99739.06;4932526;29;20036;-91
2023/03/28 09:15:29;;;;;;;6.35;4.22;;;;;;;8.73;51.22;99755.47;4950762;28;20054;-91
2023/03/28 09:18:13;;;;;;;5.97;3.05;;;;;;;8.39;51.93;99745.78;4935882;28;20063;-90
2023/03/28 09:21:17;;;;;;;7.07;4.30;;;;;;;8.54;52.58;99754.81;4929915;29;20044;-89
2023/03/28 09:24:05;;;;;;;7.07;3.70;;;;;;;8.54;52.12;99765.53;4930787;29;20054;-87
2023/03/28 09:26:35;;;;;;;7.53;3.15;;;;;;;8.69;51.71;99772.91;4940249;29;20105;-89
2023/03/28 09:29:07;;;;;;;8.88;3.78;;;;;;;8.56;51.82;99784.97;4920386;29;20032;-88
2023/03/28 09:31:49;;;;;;;8.00;3.35;;;;;;;8.68;51.50;99781.94;4922550;29;20066;-89
2023/03/28 09:34:26;;;;;;;11.05;3.20;;;;;;;8.97;50.81;99792.13;4914732;29;20043;-91
2023/03/28 09:37:13;;;;;;;3.97;2.83;;;;;;;8.84;50.96;99803.34;4928135;29;20055;-93
2023/03/28 09:39:43;;;;;;;10.57;3.05;;;;;;;8.65;51.13;99802.72;4929106;29;20050;-88
2023/03/28 09:42:22;;;;;;;7.82;3.90;;;;;;;8.99;51.34;99835.66;4904608;29;20126;-89
2023/03/28 09:45:16;;;;;;;8.75;3.03;;;;;;;8.75;50.71;99833.84;4917852;29;20414;-91
2023/03/28 09:47:41;;;;;;;11.57;3.22;;;;;;;8.74;50.78;99826.84;4929483;29;20094;-90
2023/03/28 09:50:15;;;;;;;12.55;3.72;;;;;;;8.62;51.04;99872.72;4927225;29;20221;-90
2023/03/28 09:52:52;;;;;;;5.53;2.88;;;;;;;8.45;51.77;99874.56;4941738;28;20050;-93
2023/03/28 09:55:24;;;;;;;6.25;3.05;;;;;;;8.09;52.54;99857.91;4947789;28;20039;-92
2023/03/28 09:58:19;;;;;;;17.30;3.25;;;;;;;8.21;52.86;99904.78;4941019;28;20046;-91
2023/03/28 10:00:50;;;;;;;10.00;3.22;;;;;;;8.54;51.40;99904.84;4937556;29;20050;-90
2023/03/28 10:03:33;;;;;;;8.88;3.22;;;;;;;8.32;52.01;99884.06;4941682;29;20036;-89
2023/03/28 10:06:18;;;;;;;12.48;5.13;;;;;;;8.32;52.76;99913.53;4926266;28;20051;-93
2023/03/28 10:08:46;;;;;;;6.23;3.20;;;;;;;8.33;52.49;99931.25;4923566;29;20040;-92
2023/03/28 10:11:16;;;;;;;8.35;3.63;;;;;;;7.90;54.04;99909.06;4931288;29;20044;-87
2023/03/28 10:14:08;;;;;;;11.63;4.13;;;;;;;8.08;54.21;99920.50;4927256;29;20044;-91
2023/03/28 10:16:34;;;;;;;4.28;2.65;;;;;;;8.07;51.48;99934.03;4927643;29;20052;-87
2023/03/28 10:19:00;;;;;;;6.40;2.72;;;;;;;7.70;51.18;99938.75;4927182;29;20115;-88
2023/03/28 10:21:26;;;;;;;4.75;3.00;;;;;;;7.72;51.41;99934.06;4906080;29;20146;-90
2023/03/28 10:23:59;;;;;;;5.68;2.85;;;;;;;7.79;51.91;99932.41;4927184;29;20495;-92
2023/03/28 10:26:26;;;;;;;6.15;3.20;;;;;;;7.77;52.40;99939.78;4915821;29;20119;-93
2023/03/28 10:28:53;;;;;;;9.07;3.13;;;;;;;7.65;53.04;99946.41;4910632;29;20050;-90
2023/03/28 10:31:30;;;;;;;;;;;;;;;7.73;53.50;99962.50;4913666;29;20050;-89
2023/03/28 10:34:01;;;;;;;8.85;3.33;;;;;;;7.84;53.24;99950.66;4936558;29;19928;-91
2023/03/28 10:36:47;;;;;;;7.57;3.38;;;;;;;7.99;53.29;99977.69;4911417;29;20039;-90
2023/03/28 10:39:20;;;;;;;;;;;;;;;7.96;53.41;99977.97;4931328;29;20745;-90
2023/03/28 10:42:14;;;;;;;7.78;3.50;;;;;;;7.99;53.53;99983.03;4916202;29;19937;-90
2023/03/28 10:44:45;;;;;;;11.90;3.42;;;;;;;8.01;53.27;99987.22;4916811;29;20123;-89
2023/03/28 10:47:15;;;;;;;7.07;3.50;;;;;;;8.24;52.51;99987.50;4923612;29;20044;-91
2023/03/28 10:49:46;;;;;;;7.97;3.67;;;;;;;8.29;52.33;99997.72;4925706;29;20405;-89
2023/03/28 10:52:45;;;;;;;6.25;3.95;;;;;;;8.14;52.59;100000.16;4917434;29;20039;-90
2023/03/28 10:55:39;;;;;;;6.55;3.65;;;;;;;7.95;52.66;100008.44;4929861;29;20052;-92
2023/03/28 10:58:48;;;;;;;7.55;3.30;;;;;;;7.69;53.30;100011.97;4936929;29;20130;-90
2023/03/28 11:01:23;;;;;;;7.43;3.60;;;;;;;7.73;53.38;100010.66;4917626;29;20465;-87
2023/03/28 11:03:58;;;;;;;10.03;4.50;;;;;;;7.80;53.54;100025.09;4945861;29;20477;-89
2023/03/28 11:06:29;;;;;;;9.70;4.00;;;;;;;7.78;53.21;100016.38;4933406;29;20076;-88
2023/03/28 11:09:00;;;;;;;9.15;4.03;;;;;;;7.51;53.99;100021.88;4930142;29;20509;-90
2023/03/28 11:11:45;;;;;;;7.10;4.38;;;;;;;7.65;54.30;100032.00;4934596;29;20453;-90
2023/03/28 11:14:35;;;;;;;7.75;3.95;;;;;;;7.60;54.00;100034.31;4938586;29;20126;-90
2023/03/28 11:17:20;;;;;;;6.22;3.97;;;;;;;7.59;54.10;100028.13;4929560;29;20198;-89
2023/03/28 11:20:16;;;;;;;7.35;4.07;;;;;;;7.63;53.95;100031.31;4936494;29;20047;-89
2023/03/28 11:22:53;;;;;;;5.80;4.18;;;;;;;7.64;54.03;100030.34;4932631;29;20117;-89
2023/03/28 11:25:38;;;;;;;6.82;4.00;;;;;;;7.75;53.92;100027.41;4919922;29;20044;-91
2023/03/28 11:28:37;;;;;;;8.05;3.78;;;;;;;7.72;53.78;100022.34;4962796;28;20109;-90
2023/03/28 11:31:03;;;;;;;9.43;3.83;;;;;;;7.80;54.04;100041.16;4944443;29;20051;-87
2023/03/28 11:33:47;;;;;;;5.05;3.55;;;;;;;7.76;53.95;100042.47;4935754;29;20051;-90
2023/03/28 11:36:15;;;;;;;8.07;4.53;;;;;;;7.82;54.05;100039.16;4917657;29;20055;-89
2023/03/28 11:38:53;;;;;;;7.00;3.75;;;;;;;7.72;53.88;100008.97;4919252;29;20064;-89
2023/03/28 11:41:22;;;;;;;7.90;4.07;;;;;;;7.78;54.10;100015.56;4935084;29;20055;-88
2023/03/28 11:44:08;;;;;;;6.40;4.10;;;;;;;7.92;54.15;100038.22;4936224;29;20050;-90
2023/03/28 11:46:39;;;;;;;6.47;4.20;;;;;;;7.86;54.14;100028.13;4935422;29;20059;-89
2023/03/28 11:49:13;;;;;;;14.52;5.03;;;;;;;7.90;54.44;100034.84;4903742;29;20051;-90
2023/03/28 11:52:01;;;;;;;8.50;3.80;;;;;;;7.83;54.54;100027.44;4936074;29;20067;-88
2023/03/28 11:54:42;;;;;;;9.32;4.18;;;;;;;7.87;54.80;100024.47;4926258;29;20040;-90
2023/03/28 11:57:29;;;;;;;8.82;4.22;;;;;;;7.98;54.77;100032.19;4916942;29;20135;-90
2023/03/28 12:00:19;;;;;;;9.60;4.15;;;;;;;8.17;54.31;100039.16;4936068;29;20476;-89
2023/03/28 12:03:15;;;;;;;16.90;4.50;;;;;;;8.18;54.28;100055.06;4921692;29;20039;-91
2023/03/28 12:06:10;;;;;;;12.23;4.15;;;;;;;8.27;54.35;100053.28;4928420;29;20636;-91
2023/03/28 12:08:53;;;;;;;9.70;4.53;;;;;;;8.26;54.76;100056.94;4933788;29;20052;-90
2023/03/28 12:11:53;;;;;;;8.98;4.50;;;;;;;8.41;54.55;100051.84;4927762;29;20043;-89
2023/03/28 12:14:40;;;;;;;9.68;3.85;;;;;;;8.33;54.77;100057.97;4912495;29;20401;-89
2023/03/28 12:17:36;;;;;;;9.60;4.80;;;;;;;8.10;55.34;100047.00;4917237;29;20525;-88
2023/03/28 12:20:06;;;;;;;;;;;;;;;7.97;55.69;100063.50;4915696;29;20066;-90
2023/03/28 12:22:45;;;;;;;10.40;3.90;;;;;;;7.77;56.64;100068.25;4923810;29;19931;-90
2023/03/28 12:25:40;;;;;;;6.57;4.00;;;;;;;7.77;56.81;100078.94;4940459;29;20043;-89
2023/03/28 12:28:21;;;;;;;9.48;4.78;;;;;;;7.93;56.68;100085.38;4924706;29;20048;-91
2023/03/28 12:31:10;;;;;;;13.68;4.70;;;;;;;8.01;57.01;100093.47;4922937;28;20019;-90
2023/03/28 12:34:39;;;;;;;9.45;4.28;;;;;;;7.85;57.28;100096.03;4931898;29;20039;-90
2023/03/28 12:37:11;;;;;;;14.65;4.20;;;;;;;7.83;57.43;100099.69;4930202;29;20040;-89
2023/03/28 12:40:24;;;;;;;8.02;3.90;;;;;;;7.73;58.05;100111.53;4950513;29;20469;-90
2023/03/28 12:42:53;;;;;;;8.10;4.07;;;;;;;7.75;58.77;100112.19;4913708;29;20066;-88
2023/03/28 12:45:33;;;;;;;11.98;4.05;;;;;;;7.57;60.37;100123.75;4921699;29;20112;-89
2023/03/28 12:48:06;;;;;;;8.38;4.38;;;;;;;7.47;62.68;100123.03;4927464;29;20094;-88
2023/03/28 12:51:05;;;;;;;8.30;4.95;;;;;;;7.43;64.25;100134.19;4923426;29;20043;-89
2023/03/28 12:53:33;;;;;;;9.07;4.90;;;;;;;7.50;63.93;100124.53;4937497;29;20066;-90
2023/03/28 12:56:02;;;;;;;9.60;4.93;;;;;;;7.37;63.98;100108.88;4953564;28;20059;-88
2023/03/28 12:58:38;;;;;;;10.65;4.95;;;;;;;7.54;63.44;100112.53;4946959;29;20044;-88
2023/03/28 13:01:35;;;;;;;8.57;4.65;;;;;;;7.62;62.58;100134.00;4927040;29;20376;-90
2023/03/28 13:04:15;;;;;;;9.65;5.80;;;;;;;7.49;63.36;100152.25;4925908;29;20036;-88
2023/03/28 13:06:51;;;;;;;7.43;5.10;;;;;;;7.37;63.80;100140.97;4909618;29;20381;-89
2023/03/28 13:09:37;;;;;;;;;;;;;;;7.47;63.89;100138.19;4927840;29;20123;-88
2023/03/28 13:12:22;;;;;;;9.82;5.70;;;;;;;7.24;64.04;100140.53;4913028;29;19927;-89
2023/03/28 13:14:57;;;;;;;8.80;6.05;;;;;;;7.13;64.25;100142.41;4916645;29;20047;-88
2023/03/28 13:17:25;;;;;;;8.45;5.28;;;;;;;7.11;64.07;100124.84;4921900;29;20100;-87
2023/03/28 13:19:59;;;;;;;10.93;4.97;;;;;;;7.29;64.01;100141.72;4929362;29;20043;-88
2023/03/28 13:22:39;;;;;;;11.63;5.47;;;;;;;7.01;64.16;100130.25;4908056;29;20067;-88
2023/03/28 13:25:26;;;;;;;10.95;4.97;;;;;;;7.21;63.90;100152.34;4934731;29;20044;-88
2023/03/28 13:28:11;;;;;;;11.32;4.43;;;;;;;7.02;64.85;100144.44;4934262;29;20469;-89
2023/03/28 13:30:42;;;;;;;;;;;;;;;7.26;65.11;100159.91;4944892;29;20091;-85
2023/03/28 13:33:25;;;;;;;7.93;4.07;;;;;;;7.19;65.38;100154.34;4940740;29;19934;-86
2023/03/28 13:36:00;;;;;;;9.38;5.40;;;;;;;7.24;65.78;100165.41;4950157;29;20047;-89
2023/03/28 13:38:26;;;;;;;12.10;4.80;;;;;;;7.19;67.19;100178.41;4948676;29;20100;-89
2023/03/28 13:41:05;;;;;;;17.40;9.30;;;;;;;7.05;68.61;100168.22;4927856;29;20044;-86
2023/03/28 13:43:47;;;;;;;10.50;6.07;;;;;;;7.02;69.30;100179.19;4919068;29;20040;-87
2023/03/28 13:46:33;;;;;;;9.73;5.05;;;;;;;6.85;70.55;100186.19;4936102;29;20052;-88
2023/03/28 13:50:03;;;;;;;9.63;5.13;;;;;;;6.75;73.43;100195.09;4920439;29;20103;-90
2023/03/28 13:52:31;;;;;;;7.75;4.70;;;;;;;6.71;73.43;100192.84;4910987;29;20047;-88
2023/03/28 13:55:08;;;;;;;9.20;6.00;;;;;;;6.70;73.34;100177.84;4940260;28;20123;-89
2023/03/28 13:57:33;;;;;;;6.70;4.70;;;;;;;6.67;73.67;100186.13;4943397;29;20036;-88
2023/03/28 14:00:03;;;;;;;8.13;4.72;;;;;;;6.88;73.54;100210.78;4931559;29;20042;-87
2023/03/28 14:02:37;;;;;;;5.95;4.13;;;;;;;6.66;72.72;100220.00;4912150;29;20125;-88
2023/03/28 14:05:22;;;;;;;8.00;4.50;;;;;;;6.64;73.10;100223.81;4919578;29;20115;-88
2023/03/28 14:07:50;;;;;;;6.50;4.20;;;;;;;6.80;72.32;100226.72;4933742;29;20041;-88
2023/03/28 14:10:42;;;;;;;8.38;4.07;;;;;;;6.78;72.07;100231.34;4929916;29;20116;-90
2023/03/28 14:13:15;;;;;;;7.45;3.90;;;;;;;6.68;71.11;100241.25;4910788;29;20036;-88
2023/03/28 14:15:43;;;;;;;6.35;3.60;;;;;;;6.57;71.14;100233.41;4925069;29;20047;-88